Time,TemperatureF,DewpointF,PressureIn,WindDirection,WindDirectionDegrees,WindSpeedMPH,WindSpeedGustMPH,Humidity,HourlyPrecipIn,Conditions,Clouds,dailyrainin,SoftwareType,DateUTC
2013-02-25 17:31:00,35.0,17.0,-100.00,ENE,76,1.0,4.0,48,-99.99,,,-99.99,,2013-02-25 17:31:00,
2013-02-25 17:41:00,36.0,21.0,-100.00,West,280,5.0,7.0,54,-99.99,,,-99.99,,2013-02-25 17:41:00,
2013-02-25 17:52:00,36.0,21.0,-100.00,West,280,5.0,7.0,54,-99.99,,,-99.99,,2013-02-25 17:52:00,
2013-02-25 18:01:00,38.0,21.0,-100.00,West,278,6.0,9.0,48,-99.99,,,-99.99,,2013-02-25 18:01:00,
2013-02-25 18:12:00,38.0,21.0,-100.00,West,278,6.0,9.0,48,-99.99,,,-99.99,,2013-02-25 18:12:00,
2013-02-25 18:21:00,38.0,21.0,-100.00,West,278,6.0,9.0,48,-99.99,,,-99.99,,2013-02-25 18:21:00,
2013-02-25 18:32:00,39.0,20.0,-100.00,West,280,7.0,9.0,47,-99.99,,,-99.99,,2013-02-25 18:32:00,
2013-02-25 18:41:00,40.0,15.0,-100.00,WNW,288,4.0,7.0,36,-99.99,,,-99.99,,2013-02-25 18:41:00,
2013-02-25 18:51:00,40.0,18.0,-100.00,WNW,285,4.0,6.0,42,-99.99,,,-99.99,,2013-02-25 18:51:00,
2013-02-25 19:01:00,40.0,18.0,-100.00,WNW,292,6.0,10.0,41,-99.99,,,-99.99,,2013-02-25 19:01:00,
2013-02-25 19:11:00,40.0,16.0,-100.00,NW,320,4.0,6.0,38,-99.99,,,-99.99,,2013-02-25 19:11:00,
2013-02-25 19:21:00,41.0,15.0,-100.00,NW,315,2.0,3.0,35,-99.99,,,-99.99,,2013-02-25 19:21:00,
2013-02-25 19:31:00,41.0,13.0,-100.00,SW,227,3.0,6.0,32,-99.99,,,-99.99,,2013-02-25 19:31:00,
2013-02-25 19:41:00,41.0,16.0,-100.00,WNW,287,4.0,7.0,35,-99.99,,,-99.99,,2013-02-25 19:41:00,
2013-02-25 19:52:00,42.0,16.0,-100.00,West,261,4.0,7.0,35,-99.99,,,-99.99,,2013-02-25 19:52:00,
2013-02-25 20:01:00,42.0,13.0,-100.00,WNW,292,3.0,6.0,30,-99.99,,,-99.99,,2013-02-25 20:01:00,
2013-02-25 20:11:00,42.0,15.0,-100.00,WNW,295,3.0,4.0,32,-99.99,,,-99.99,,2013-02-25 20:11:00,
2013-02-25 20:21:00,42.0,15.0,-100.00,West,275,4.0,6.0,33,-99.99,,,-99.99,,2013-02-25 20:21:00,
2013-02-25 20:31:00,42.0,13.0,-100.00,West,272,5.0,9.0,30,-99.99,,,-99.99,,2013-02-25 20:31:00,
2013-02-25 20:41:00,42.0,13.0,-100.00,West,272,5.0,9.0,30,-99.99,,,-99.99,,2013-02-25 20:41:00,
2013-02-25 20:52:00,42.0,13.0,-100.00,West,272,5.0,9.0,30,-99.99,,,-99.99,,2013-02-25 20:52:00,
2013-02-25 21:11:00,42.0,16.0,-100.00,West,280,4.0,8.0,34,-99.99,,,-99.99,,2013-02-25 21:11:00,
2013-02-25 21:21:00,42.0,16.0,-100.00,West,280,4.0,8.0,34,-99.99,,,-99.99,,2013-02-25 21:21:00,
2013-02-25 21:31:00,42.0,15.0,-100.00,WSW,256,5.0,11.0,33,-99.99,,,-99.99,,2013-02-25 21:31:00,
2013-02-25 21:42:00,42.0,20.0,-100.00,West,270,5.0,11.0,41,-99.99,,,-99.99,,2013-02-25 21:42:00,
2013-02-25 21:51:00,42.0,20.0,-100.00,West,270,5.0,11.0,41,-99.99,,,-99.99,,2013-02-25 21:51:00,
2013-02-25 22:01:00,42.0,19.0,-100.00,West,272,6.0,9.0,39,-99.99,,,-99.99,,2013-02-25 22:01:00,
2013-02-25 22:11:00,42.0,19.0,-100.00,WNW,287,8.0,10.0,39,-99.99,,,-99.99,,2013-02-25 22:11:00,
2013-02-25 22:21:00,42.0,16.0,-100.00,West,278,6.0,9.0,35,-99.99,,,-99.99,,2013-02-25 22:21:00,
2013-02-25 22:31:00,41.0,17.0,-100.00,WNW,285,8.0,12.0,38,-99.99,,,-99.99,,2013-02-25 22:31:00,
2013-02-25 22:41:00,41.0,20.0,-100.00,West,281,7.0,10.0,42,-99.99,,,-99.99,,2013-02-25 22:41:00,
2013-02-25 22:51:00,41.0,21.0,-100.00,WNW,288,8.0,11.0,44,-99.99,,,-99.99,,2013-02-25 22:51:00,
2013-02-25 23:01:00,41.0,21.0,-100.00,WNW,288,7.0,11.0,44,-99.99,,,-99.99,,2013-02-25 23:01:00,
2013-02-25 23:11:00,41.0,21.0,-100.00,West,280,7.0,10.0,45,-99.99,,,-99.99,,2013-02-25 23:11:00,
2013-02-25 23:22:00,41.0,21.0,-100.00,West,272,5.0,7.0,45,-99.99,,,-99.99,,2013-02-25 23:22:00,
2013-02-25 23:31:00,41.0,22.0,-100.00,West,267,5.0,7.0,47,-99.99,,,-99.99,,2013-02-25 23:31:00,
2013-02-25 23:41:00,41.0,22.0,-100.00,West,267,5.0,7.0,47,-99.99,,,-99.99,,2013-02-25 23:41:00,
2013-02-25 23:52:00,41.0,20.0,-100.00,West,271,4.0,6.0,42,-99.99,,,-99.99,,2013-02-25 23:52:00,